sensor_id;sensor_type;location;lat;lon;timestamp;P1;durP1;ratioP1;P2;durP2;ratioP2
75446;SDS011;64024;55.820;37.574;2023-07-16T00:00:12;3.17;;;2.70;;
75446;SDS011;64024;55.820;37.574;2023-07-16T00:02:41;4.35;;;3.33;;
75446;SDS011;64024;55.820;37.574;2023-07-16T00:05:08;3.63;;;3.33;;
75446;SDS011;64024;55.820;37.574;2023-07-16T00:07:34;4.75;;;3.65;;
75446;SDS011;64024;55.820;37.574;2023-07-16T00:10:01;4.13;;;3.58;;
75446;SDS011;64024;55.820;37.574;2023-07-16T00:12:27;4.28;;;3.75;;
75446;SDS011;64024;55.820;37.574;2023-07-16T00:14:54;4.57;;;3.97;;
75446;SDS011;64024;55.820;37.574;2023-07-16T00:17:22;4.55;;;3.78;;
75446;SDS011;64024;55.820;37.574;2023-07-16T00:19:48;4.22;;;3.45;;
75446;SDS011;64024;55.820;37.574;2023-07-16T00:22:16;4.10;;;3.67;;
75446;SDS011;64024;55.820;37.574;2023-07-16T00:24:43;4.35;;;3.95;;
75446;SDS011;64024;55.820;37.574;2023-07-16T00:27:10;4.20;;;3.53;;
75446;SDS011;64024;55.820;37.574;2023-07-16T00:29:36;3.75;;;3.30;;
75446;SDS011;64024;55.820;37.574;2023-07-16T00:32:03;3.95;;;3.55;;
75446;SDS011;64024;55.820;37.574;2023-07-16T00:34:29;5.55;;;3.85;;
75446;SDS011;64024;55.820;37.574;2023-07-16T00:36:56;4.75;;;3.90;;
75446;SDS011;64024;55.820;37.574;2023-07-16T00:39:27;4.40;;;3.92;;
75446;SDS011;64024;55.820;37.574;2023-07-16T00:41:54;4.07;;;3.45;;
75446;SDS011;64024;55.820;37.574;2023-07-16T00:44:22;4.15;;;3.72;;
75446;SDS011;64024;55.820;37.574;2023-07-16T00:46:49;4.07;;;3.47;;
75446;SDS011;64024;55.820;37.574;2023-07-16T00:49:16;4.38;;;3.97;;
75446;SDS011;64024;55.820;37.574;2023-07-16T00:51:43;4.10;;;3.47;;
75446;SDS011;64024;55.820;37.574;2023-07-16T00:54:10;4.43;;;3.70;;
75446;SDS011;64024;55.820;37.574;2023-07-16T00:56:37;4.18;;;3.75;;
75446;SDS011;64024;55.820;37.574;2023-07-16T00:59:04;4.13;;;3.70;;
75446;SDS011;64024;55.820;37.574;2023-07-16T01:01:32;4.72;;;4.13;;
75446;SDS011;64024;55.820;37.574;2023-07-16T01:03:58;4.40;;;4.00;;
75446;SDS011;64024;55.820;37.574;2023-07-16T01:06:33;3.67;;;3.30;;
75446;SDS011;64024;55.820;37.574;2023-07-16T01:09:16;4.68;;;4.10;;
75446;SDS011;64024;55.820;37.574;2023-07-16T01:11:45;4.82;;;4.32;;
75446;SDS011;64024;55.820;37.574;2023-07-16T01:14:13;4.40;;;3.70;;
75446;SDS011;64024;55.820;37.574;2023-07-16T01:16:43;4.55;;;4.07;;
75446;SDS011;64024;55.820;37.574;2023-07-16T01:19:09;4.38;;;3.95;;
75446;SDS011;64024;55.820;37.574;2023-07-16T01:32:21;4.18;;;3.72;;
75446;SDS011;64024;55.820;37.574;2023-07-16T01:34:49;5.47;;;4.03;;
75446;SDS011;64024;55.820;37.574;2023-07-16T01:37:18;5.10;;;4.05;;
75446;SDS011;64024;55.820;37.574;2023-07-16T01:39:46;4.30;;;3.90;;
75446;SDS011;64024;55.820;37.574;2023-07-16T01:42:13;4.03;;;3.63;;
75446;SDS011;64024;55.820;37.574;2023-07-16T01:44:40;4.80;;;4.32;;
75446;SDS011;64024;55.820;37.574;2023-07-16T01:47:09;4.00;;;3.60;;
75446;SDS011;64024;55.820;37.574;2023-07-16T01:50:01;4.10;;;3.42;;
75446;SDS011;64024;55.820;37.574;2023-07-16T01:52:29;5.53;;;4.15;;
75446;SDS011;64024;55.820;37.574;2023-07-16T01:57:21;4.03;;;3.63;;
75446;SDS011;64024;55.820;37.574;2023-07-16T01:59:49;5.15;;;4.65;;
75446;SDS011;64024;55.820;37.574;2023-07-16T02:02:16;3.63;;;3.28;;
75446;SDS011;64024;55.820;37.574;2023-07-16T02:04:42;4.32;;;3.92;;
75446;SDS011;64024;55.820;37.574;2023-07-16T02:07:09;4.40;;;3.65;;
75446;SDS011;64024;55.820;37.574;2023-07-16T02:09:36;4.35;;;3.85;;
75446;SDS011;64024;55.820;37.574;2023-07-16T02:12:02;4.90;;;3.80;;
75446;SDS011;64024;55.820;37.574;2023-07-16T02:18:01;3.70;;;3.35;;
75446;SDS011;64024;55.820;37.574;2023-07-16T02:20:29;4.63;;;3.83;;
75446;SDS011;64024;55.820;37.574;2023-07-16T02:22:57;5.50;;;3.58;;
75446;SDS011;64024;55.820;37.574;2023-07-16T02:25:31;4.07;;;3.67;;
75446;SDS011;64024;55.820;37.574;2023-07-16T02:28:00;5.18;;;4.15;;
75446;SDS011;64024;55.820;37.574;2023-07-16T02:30:28;4.18;;;3.53;;
75446;SDS011;64024;55.820;37.574;2023-07-16T02:32:54;4.03;;;3.65;;
75446;SDS011;64024;55.820;37.574;2023-07-16T02:35:21;5.03;;;3.30;;
75446;SDS011;64024;55.820;37.574;2023-07-16T02:37:51;4.10;;;3.67;;
75446;SDS011;64024;55.820;37.574;2023-07-16T02:40:22;4.65;;;3.78;;
75446;SDS011;64024;55.820;37.574;2023-07-16T02:42:49;4.30;;;3.88;;
75446;SDS011;64024;55.820;37.574;2023-07-16T02:45:16;4.13;;;3.63;;
75446;SDS011;64024;55.820;37.574;2023-07-16T02:47:43;5.00;;;3.92;;
75446;SDS011;64024;55.820;37.574;2023-07-16T02:50:09;4.57;;;3.35;;
75446;SDS011;64024;55.820;37.574;2023-07-16T02:52:38;3.83;;;3.33;;
75446;SDS011;64024;55.820;37.574;2023-07-16T02:55:07;4.07;;;3.67;;
75446;SDS011;64024;55.820;37.574;2023-07-16T02:57:35;3.88;;;3.35;;
75446;SDS011;64024;55.820;37.574;2023-07-16T03:00:04;5.50;;;3.42;;
75446;SDS011;64024;55.820;37.574;2023-07-16T03:05:54;4.18;;;3.67;;
75446;SDS011;64024;55.820;37.574;2023-07-16T03:08:22;4.75;;;3.47;;
75446;SDS011;64024;55.820;37.574;2023-07-16T03:10:55;4.35;;;3.55;;
75446;SDS011;64024;55.820;37.574;2023-07-16T03:13:22;4.40;;;3.53;;
75446;SDS011;64024;55.820;37.574;2023-07-16T03:15:48;4.00;;;3.60;;
75446;SDS011;64024;55.820;37.574;2023-07-16T03:18:17;4.03;;;3.60;;
75446;SDS011;64024;55.820;37.574;2023-07-16T03:20:44;4.05;;;3.65;;
75446;SDS011;64024;55.820;37.574;2023-07-16T03:23:11;3.97;;;3.58;;
75446;SDS011;64024;55.820;37.574;2023-07-16T03:28:04;3.42;;;3.08;;
75446;SDS011;64024;55.820;37.574;2023-07-16T03:30:30;4.25;;;3.63;;
75446;SDS011;64024;55.820;37.574;2023-07-16T03:32:58;4.53;;;3.88;;
75446;SDS011;64024;55.820;37.574;2023-07-16T03:35:25;4.38;;;3.90;;
75446;SDS011;64024;55.820;37.574;2023-07-16T03:37:52;4.15;;;3.75;;
75446;SDS011;64024;55.820;37.574;2023-07-16T03:40:22;4.55;;;3.83;;
75446;SDS011;64024;55.820;37.574;2023-07-16T03:42:50;4.47;;;3.67;;
75446;SDS011;64024;55.820;37.574;2023-07-16T03:45:16;4.60;;;3.55;;
75446;SDS011;64024;55.820;37.574;2023-07-16T03:47:43;4.63;;;3.85;;
75446;SDS011;64024;55.820;37.574;2023-07-16T03:50:13;4.22;;;3.45;;
75446;SDS011;64024;55.820;37.574;2023-07-16T03:52:40;3.97;;;3.58;;
75446;SDS011;64024;55.820;37.574;2023-07-16T03:55:06;5.80;;;4.20;;
75446;SDS011;64024;55.820;37.574;2023-07-16T03:57:33;5.07;;;3.63;;
75446;SDS011;64024;55.820;37.574;2023-07-16T04:00:01;4.80;;;4.30;;
75446;SDS011;64024;55.820;37.574;2023-07-16T04:02:29;4.20;;;3.60;;
75446;SDS011;64024;55.820;37.574;2023-07-16T04:04:56;5.47;;;3.67;;
75446;SDS011;64024;55.820;37.574;2023-07-16T04:07:23;4.40;;;3.97;;
75446;SDS011;64024;55.820;37.574;2023-07-16T04:09:49;4.68;;;3.90;;
75446;SDS011;64024;55.820;37.574;2023-07-16T04:12:16;5.88;;;4.38;;
75446;SDS011;64024;55.820;37.574;2023-07-16T04:14:43;4.07;;;3.70;;
75446;SDS011;64024;55.820;37.574;2023-07-16T04:17:12;5.40;;;3.78;;
75446;SDS011;64024;55.820;37.574;2023-07-16T04:19:39;4.63;;;3.65;;
75446;SDS011;64024;55.820;37.574;2023-07-16T04:22:06;5.15;;;3.70;;
75446;SDS011;64024;55.820;37.574;2023-07-16T04:24:32;5.68;;;4.03;;
75446;SDS011;64024;55.820;37.574;2023-07-16T04:26:59;4.63;;;3.83;;
75446;SDS011;64024;55.820;37.574;2023-07-16T04:29:25;5.03;;;3.63;;
75446;SDS011;64024;55.820;37.574;2023-07-16T04:31:53;5.57;;;4.03;;
75446;SDS011;64024;55.820;37.574;2023-07-16T04:34:20;4.65;;;4.25;;
75446;SDS011;64024;55.820;37.574;2023-07-16T04:36:47;5.07;;;4.57;;
75446;SDS011;64024;55.820;37.574;2023-07-16T04:39:16;5.30;;;4.32;;
75446;SDS011;64024;55.820;37.574;2023-07-16T04:41:42;4.97;;;3.88;;
75446;SDS011;64024;55.820;37.574;2023-07-16T04:44:10;4.55;;;3.80;;
75446;SDS011;64024;55.820;37.574;2023-07-16T04:46:36;4.40;;;4.00;;
75446;SDS011;64024;55.820;37.574;2023-07-16T04:49:04;5.28;;;4.78;;
75446;SDS011;64024;55.820;37.574;2023-07-16T04:51:41;4.63;;;3.88;;
75446;SDS011;64024;55.820;37.574;2023-07-16T04:54:09;5.45;;;4.95;;
75446;SDS011;64024;55.820;37.574;2023-07-16T04:56:47;4.50;;;3.97;;
75446;SDS011;64024;55.820;37.574;2023-07-16T04:59:16;4.65;;;3.83;;
75446;SDS011;64024;55.820;37.574;2023-07-16T05:04:09;4.47;;;3.75;;
75446;SDS011;64024;55.820;37.574;2023-07-16T05:06:35;4.32;;;3.75;;
75446;SDS011;64024;55.820;37.574;2023-07-16T05:09:02;4.40;;;3.75;;
75446;SDS011;64024;55.820;37.574;2023-07-16T05:11:29;5.03;;;4.18;;
75446;SDS011;64024;55.820;37.574;2023-07-16T05:13:58;4.75;;;4.03;;
75446;SDS011;64024;55.820;37.574;2023-07-16T05:16:27;4.57;;;3.92;;
75446;SDS011;64024;55.820;37.574;2023-07-16T05:18:57;5.65;;;4.30;;
75446;SDS011;64024;55.820;37.574;2023-07-16T05:21:24;5.05;;;4.65;;
75446;SDS011;64024;55.820;37.574;2023-07-16T05:23:55;4.63;;;4.10;;
75446;SDS011;64024;55.820;37.574;2023-07-16T05:26:33;4.38;;;3.97;;
75446;SDS011;64024;55.820;37.574;2023-07-16T05:29:01;4.88;;;3.83;;
75446;SDS011;64024;55.820;37.574;2023-07-16T05:31:29;5.03;;;4.60;;
75446;SDS011;64024;55.820;37.574;2023-07-16T05:33:58;4.38;;;3.95;;
75446;SDS011;64024;55.820;37.574;2023-07-16T05:36:25;5.93;;;4.10;;
75446;SDS011;64024;55.820;37.574;2023-07-16T05:38:52;5.18;;;3.92;;
75446;SDS011;64024;55.820;37.574;2023-07-16T05:41:19;5.47;;;3.97;;
75446;SDS011;64024;55.820;37.574;2023-07-16T05:43:46;4.40;;;4.00;;
75446;SDS011;64024;55.820;37.574;2023-07-16T05:46:12;5.40;;;4.18;;
75446;SDS011;64024;55.820;37.574;2023-07-16T05:48:38;4.95;;;3.80;;
75446;SDS011;64024;55.820;37.574;2023-07-16T05:51:05;4.00;;;3.53;;
75446;SDS011;64024;55.820;37.574;2023-07-16T05:53:31;5.03;;;4.22;;
75446;SDS011;64024;55.820;37.574;2023-07-16T05:55:58;5.10;;;4.25;;
75446;SDS011;64024;55.820;37.574;2023-07-16T05:58:24;5.65;;;5.05;;
75446;SDS011;64024;55.820;37.574;2023-07-16T06:00:50;5.82;;;5.10;;
75446;SDS011;64024;55.820;37.574;2023-07-16T06:03:16;5.07;;;4.53;;
75446;SDS011;64024;55.820;37.574;2023-07-16T06:08:09;5.70;;;4.60;;
75446;SDS011;64024;55.820;37.574;2023-07-16T06:10:36;5.28;;;4.50;;
75446;SDS011;64024;55.820;37.574;2023-07-16T06:13:04;7.55;;;4.65;;
75446;SDS011;64024;55.820;37.574;2023-07-16T06:15:31;6.85;;;5.30;;
75446;SDS011;64024;55.820;37.574;2023-07-16T06:17:57;7.70;;;5.88;;
75446;SDS011;64024;55.820;37.574;2023-07-16T06:20:23;6.32;;;4.90;;
75446;SDS011;64024;55.820;37.574;2023-07-16T06:22:51;5.60;;;4.60;;
75446;SDS011;64024;55.820;37.574;2023-07-16T06:25:17;7.68;;;5.70;;
75446;SDS011;64024;55.820;37.574;2023-07-16T06:27:42;5.82;;;5.13;;
75446;SDS011;64024;55.820;37.574;2023-07-16T06:30:09;7.10;;;4.80;;
75446;SDS011;64024;55.820;37.574;2023-07-16T06:32:36;7.68;;;5.00;;
75446;SDS011;64024;55.820;37.574;2023-07-16T06:35:02;5.20;;;4.47;;
75446;SDS011;64024;55.820;37.574;2023-07-16T06:39:55;6.00;;;4.43;;
75446;SDS011;64024;55.820;37.574;2023-07-16T06:42:24;8.98;;;5.30;;
75446;SDS011;64024;55.820;37.574;2023-07-16T06:44:51;7.97;;;4.93;;
75446;SDS011;64024;55.820;37.574;2023-07-16T06:47:19;6.82;;;4.40;;
75446;SDS011;64024;55.820;37.574;2023-07-16T06:49:45;5.72;;;4.30;;
75446;SDS011;64024;55.820;37.574;2023-07-16T06:52:20;5.90;;;4.50;;
75446;SDS011;64024;55.820;37.574;2023-07-16T06:54:48;5.47;;;4.93;;
75446;SDS011;64024;55.820;37.574;2023-07-16T06:57:14;4.95;;;4.45;;
75446;SDS011;64024;55.820;37.574;2023-07-16T06:59:41;6.68;;;4.35;;
75446;SDS011;64024;55.820;37.574;2023-07-16T07:02:08;7.55;;;4.68;;
75446;SDS011;64024;55.820;37.574;2023-07-16T07:04:35;7.82;;;4.93;;
75446;SDS011;64024;55.820;37.574;2023-07-16T07:07:03;6.65;;;4.72;;
75446;SDS011;64024;55.820;37.574;2023-07-16T07:09:31;6.57;;;4.57;;
75446;SDS011;64024;55.820;37.574;2023-07-16T07:11:57;6.90;;;4.60;;
75446;SDS011;64024;55.820;37.574;2023-07-16T07:14:23;5.90;;;4.40;;
75446;SDS011;64024;55.820;37.574;2023-07-16T07:16:50;4.70;;;4.05;;
75446;SDS011;64024;55.820;37.574;2023-07-16T07:19:17;5.53;;;4.45;;
75446;SDS011;64024;55.820;37.574;2023-07-16T07:21:45;6.00;;;4.68;;
75446;SDS011;64024;55.820;37.574;2023-07-16T07:24:11;6.20;;;4.72;;
75446;SDS011;64024;55.820;37.574;2023-07-16T07:26:38;5.80;;;4.28;;
75446;SDS011;64024;55.820;37.574;2023-07-16T07:29:04;6.18;;;4.03;;
75446;SDS011;64024;55.820;37.574;2023-07-16T07:31:32;4.75;;;4.18;;
75446;SDS011;64024;55.820;37.574;2023-07-16T07:33:58;4.72;;;4.15;;
75446;SDS011;64024;55.820;37.574;2023-07-16T07:38:51;6.07;;;4.13;;
75446;SDS011;64024;55.820;37.574;2023-07-16T07:41:18;4.10;;;3.33;;
75446;SDS011;64024;55.820;37.574;2023-07-16T07:43:45;3.88;;;3.47;;
75446;SDS011;64024;55.820;37.574;2023-07-16T07:46:11;4.13;;;3.70;;
75446;SDS011;64024;55.820;37.574;2023-07-16T07:48:37;4.53;;;4.10;;
75446;SDS011;64024;55.820;37.574;2023-07-16T07:51:04;4.35;;;3.58;;
75446;SDS011;64024;55.820;37.574;2023-07-16T07:53:31;6.95;;;3.85;;
75446;SDS011;64024;55.820;37.574;2023-07-16T07:55:59;6.22;;;4.28;;
75446;SDS011;64024;55.820;37.574;2023-07-16T07:58:25;5.28;;;3.47;;
75446;SDS011;64024;55.820;37.574;2023-07-16T08:00:52;5.07;;;3.55;;
75446;SDS011;64024;55.820;37.574;2023-07-16T08:03:19;6.20;;;4.38;;
75446;SDS011;64024;55.820;37.574;2023-07-16T08:05:47;4.68;;;3.95;;
75446;SDS011;64024;55.820;37.574;2023-07-16T08:08:15;6.32;;;3.88;;
75446;SDS011;64024;55.820;37.574;2023-07-16T08:10:42;5.25;;;3.08;;
75446;SDS011;64024;55.820;37.574;2023-07-16T08:13:11;3.75;;;3.10;;
75446;SDS011;64024;55.820;37.574;2023-07-16T08:15:37;3.40;;;3.00;;
75446;SDS011;64024;55.820;37.574;2023-07-16T08:18:03;5.22;;;3.70;;
75446;SDS011;64024;55.820;37.574;2023-07-16T08:20:30;5.72;;;4.03;;
75446;SDS011;64024;55.820;37.574;2023-07-16T08:22:57;4.10;;;3.50;;
75446;SDS011;64024;55.820;37.574;2023-07-16T08:25:23;4.97;;;3.92;;
75446;SDS011;64024;55.820;37.574;2023-07-16T08:27:50;4.47;;;3.63;;
75446;SDS011;64024;55.820;37.574;2023-07-16T08:30:16;4.82;;;3.63;;
75446;SDS011;64024;55.820;37.574;2023-07-16T08:32:45;3.70;;;3.28;;
75446;SDS011;64024;55.820;37.574;2023-07-16T08:35:11;4.53;;;3.67;;
75446;SDS011;64024;55.820;37.574;2023-07-16T08:37:42;4.60;;;4.05;;
75446;SDS011;64024;55.820;37.574;2023-07-16T08:40:09;6.78;;;3.45;;
75446;SDS011;64024;55.820;37.574;2023-07-16T08:42:41;5.18;;;4.32;;
75446;SDS011;64024;55.820;37.574;2023-07-16T08:45:16;4.97;;;4.18;;
75446;SDS011;64024;55.820;37.574;2023-07-16T08:47:47;4.85;;;4.35;;
75446;SDS011;64024;55.820;37.574;2023-07-16T08:50:13;4.55;;;3.47;;
75446;SDS011;64024;55.820;37.574;2023-07-16T08:52:42;5.68;;;4.15;;
75446;SDS011;64024;55.820;37.574;2023-07-16T08:55:09;5.43;;;3.55;;
75446;SDS011;64024;55.820;37.574;2023-07-16T08:57:37;5.03;;;3.38;;
75446;SDS011;64024;55.820;37.574;2023-07-16T09:00:06;4.85;;;4.38;;
75446;SDS011;64024;55.820;37.574;2023-07-16T09:02:34;4.40;;;3.55;;
75446;SDS011;64024;55.820;37.574;2023-07-16T09:05:04;4.07;;;3.53;;
75446;SDS011;64024;55.820;37.574;2023-07-16T09:07:33;5.95;;;3.45;;
75446;SDS011;64024;55.820;37.574;2023-07-16T09:10:03;5.45;;;3.72;;
75446;SDS011;64024;55.820;37.574;2023-07-16T09:12:32;3.75;;;3.33;;
75446;SDS011;64024;55.820;37.574;2023-07-16T09:14:59;4.13;;;3.67;;
75446;SDS011;64024;55.820;37.574;2023-07-16T09:17:26;3.72;;;3.35;;
75446;SDS011;64024;55.820;37.574;2023-07-16T09:19:55;4.38;;;3.25;;
75446;SDS011;64024;55.820;37.574;2023-07-16T09:22:22;4.13;;;3.17;;
75446;SDS011;64024;55.820;37.574;2023-07-16T09:24:49;4.88;;;3.58;;
75446;SDS011;64024;55.820;37.574;2023-07-16T09:27:17;3.92;;;3.45;;
75446;SDS011;64024;55.820;37.574;2023-07-16T09:29:44;4.88;;;3.22;;
75446;SDS011;64024;55.820;37.574;2023-07-16T09:32:10;3.90;;;2.72;;
75446;SDS011;64024;55.820;37.574;2023-07-16T09:34:38;5.55;;;3.33;;
75446;SDS011;64024;55.820;37.574;2023-07-16T09:37:07;5.95;;;3.53;;
75446;SDS011;64024;55.820;37.574;2023-07-16T09:39:33;3.92;;;3.47;;
75446;SDS011;64024;55.820;37.574;2023-07-16T09:42:02;7.68;;;3.83;;
75446;SDS011;64024;55.820;37.574;2023-07-16T09:44:32;5.53;;;3.30;;
75446;SDS011;64024;55.820;37.574;2023-07-16T09:46:59;4.57;;;3.10;;
75446;SDS011;64024;55.820;37.574;2023-07-16T09:49:29;3.30;;;2.97;;
75446;SDS011;64024;55.820;37.574;2023-07-16T09:51:56;4.28;;;3.67;;
75446;SDS011;64024;55.820;37.574;2023-07-16T09:56:51;3.00;;;2.70;;
75446;SDS011;64024;55.820;37.574;2023-07-16T09:59:25;3.80;;;2.67;;
75446;SDS011;64024;55.820;37.574;2023-07-16T10:01:55;4.22;;;2.70;;
75446;SDS011;64024;55.820;37.574;2023-07-16T10:04:22;3.08;;;2.42;;
75446;SDS011;64024;55.820;37.574;2023-07-16T10:06:52;4.78;;;3.08;;
75446;SDS011;64024;55.820;37.574;2023-07-16T10:14:44;3.30;;;2.90;;
75446;SDS011;64024;55.820;37.574;2023-07-16T10:17:16;3.60;;;2.63;;
75446;SDS011;64024;55.820;37.574;2023-07-16T10:22:13;4.13;;;2.78;;
75446;SDS011;64024;55.820;37.574;2023-07-16T10:24:41;3.53;;;2.80;;
75446;SDS011;64024;55.820;37.574;2023-07-16T10:27:12;3.22;;;2.45;;
75446;SDS011;64024;55.820;37.574;2023-07-16T10:29:39;3.72;;;3.10;;
75446;SDS011;64024;55.820;37.574;2023-07-16T10:32:05;3.75;;;2.65;;
75446;SDS011;64024;55.820;37.574;2023-07-16T10:34:34;3.50;;;2.70;;
75446;SDS011;64024;55.820;37.574;2023-07-16T10:37:02;3.03;;;2.60;;
75446;SDS011;64024;55.820;37.574;2023-07-16T10:39:29;3.05;;;2.67;;
75446;SDS011;64024;55.820;37.574;2023-07-16T10:41:56;2.90;;;2.60;;
75446;SDS011;64024;55.820;37.574;2023-07-16T10:44:23;4.18;;;2.95;;
75446;SDS011;64024;55.820;37.574;2023-07-16T10:46:49;3.30;;;2.63;;
75446;SDS011;64024;55.820;37.574;2023-07-16T10:49:26;3.63;;;2.72;;
75446;SDS011;64024;55.820;37.574;2023-07-16T10:51:54;5.20;;;3.08;;
75446;SDS011;64024;55.820;37.574;2023-07-16T10:54:19;4.05;;;3.20;;
75446;SDS011;64024;55.820;37.574;2023-07-16T10:56:47;4.20;;;3.53;;
75446;SDS011;64024;55.820;37.574;2023-07-16T10:59:13;4.85;;;3.00;;
75446;SDS011;64024;55.820;37.574;2023-07-16T11:01:41;5.60;;;3.10;;
75446;SDS011;64024;55.820;37.574;2023-07-16T11:04:09;5.85;;;3.78;;
75446;SDS011;64024;55.820;37.574;2023-07-16T11:06:35;3.92;;;2.75;;
75446;SDS011;64024;55.820;37.574;2023-07-16T11:09:06;4.55;;;3.45;;
75446;SDS011;64024;55.820;37.574;2023-07-16T11:11:34;3.42;;;2.92;;
75446;SDS011;64024;55.820;37.574;2023-07-16T11:14:03;4.18;;;3.78;;
75446;SDS011;64024;55.820;37.574;2023-07-16T11:16:37;3.85;;;3.17;;
75446;SDS011;64024;55.820;37.574;2023-07-16T11:19:05;3.25;;;2.95;;
75446;SDS011;64024;55.820;37.574;2023-07-16T11:21:35;3.88;;;3.20;;
75446;SDS011;64024;55.820;37.574;2023-07-16T11:24:08;6.38;;;3.28;;
75446;SDS011;64024;55.820;37.574;2023-07-16T11:26:35;4.60;;;3.63;;
75446;SDS011;64024;55.820;37.574;2023-07-16T11:29:07;3.80;;;2.85;;
75446;SDS011;64024;55.820;37.574;2023-07-16T11:31:40;4.13;;;3.10;;
75446;SDS011;64024;55.820;37.574;2023-07-16T11:34:15;8.07;;;3.85;;
75446;SDS011;64024;55.820;37.574;2023-07-16T11:36:42;3.45;;;3.00;;
75446;SDS011;64024;55.820;37.574;2023-07-16T11:39:12;3.72;;;3.03;;
75446;SDS011;64024;55.820;37.574;2023-07-16T11:41:38;3.92;;;3.03;;
75446;SDS011;64024;55.820;37.574;2023-07-16T11:44:07;4.65;;;3.20;;
75446;SDS011;64024;55.820;37.574;2023-07-16T11:46:38;4.30;;;3.38;;
75446;SDS011;64024;55.820;37.574;2023-07-16T11:49:12;3.30;;;3.00;;
75446;SDS011;64024;55.820;37.574;2023-07-16T11:51:39;4.28;;;3.10;;
75446;SDS011;64024;55.820;37.574;2023-07-16T11:54:09;3.40;;;3.10;;
75446;SDS011;64024;55.820;37.574;2023-07-16T11:56:38;5.43;;;3.45;;
75446;SDS011;64024;55.820;37.574;2023-07-16T11:59:07;4.07;;;2.88;;
75446;SDS011;64024;55.820;37.574;2023-07-16T12:01:36;5.35;;;4.18;;
75446;SDS011;64024;55.820;37.574;2023-07-16T12:04:03;3.42;;;3.10;;
75446;SDS011;64024;55.820;37.574;2023-07-16T12:06:30;3.58;;;2.83;;
75446;SDS011;64024;55.820;37.574;2023-07-16T12:08:56;4.50;;;3.33;;
75446;SDS011;64024;55.820;37.574;2023-07-16T12:11:22;4.53;;;3.22;;
75446;SDS011;64024;55.820;37.574;2023-07-16T12:13:48;3.53;;;3.17;;
75446;SDS011;64024;55.820;37.574;2023-07-16T12:16:15;3.70;;;3.22;;
75446;SDS011;64024;55.820;37.574;2023-07-16T12:21:08;4.30;;;2.92;;
75446;SDS011;64024;55.820;37.574;2023-07-16T12:23:35;4.07;;;3.15;;
75446;SDS011;64024;55.820;37.574;2023-07-16T12:26:01;4.57;;;3.00;;
75446;SDS011;64024;55.820;37.574;2023-07-16T12:28:28;5.28;;;2.85;;
75446;SDS011;64024;55.820;37.574;2023-07-16T12:30:54;3.90;;;3.45;;
75446;SDS011;64024;55.820;37.574;2023-07-16T12:33:21;5.05;;;2.88;;
75446;SDS011;64024;55.820;37.574;2023-07-16T12:35:46;3.03;;;2.72;;
75446;SDS011;64024;55.820;37.574;2023-07-16T12:38:13;3.28;;;2.90;;
75446;SDS011;64024;55.820;37.574;2023-07-16T12:40:39;4.60;;;3.03;;
75446;SDS011;64024;55.820;37.574;2023-07-16T12:43:06;4.43;;;3.72;;
75446;SDS011;64024;55.820;37.574;2023-07-16T12:47:59;3.67;;;2.80;;
75446;SDS011;64024;55.820;37.574;2023-07-16T12:50:27;3.13;;;2.70;;
75446;SDS011;64024;55.820;37.574;2023-07-16T12:55:22;3.30;;;2.75;;
75446;SDS011;64024;55.820;37.574;2023-07-16T13:00:14;3.85;;;3.17;;
75446;SDS011;64024;55.820;37.574;2023-07-16T13:02:41;3.60;;;3.20;;
75446;SDS011;64024;55.820;37.574;2023-07-16T13:05:08;4.68;;;3.00;;
75446;SDS011;64024;55.820;37.574;2023-07-16T13:07:35;3.45;;;2.70;;
75446;SDS011;64024;55.820;37.574;2023-07-16T13:10:01;3.38;;;2.63;;
75446;SDS011;64024;55.820;37.574;2023-07-16T13:12:28;3.47;;;2.88;;
75446;SDS011;64024;55.820;37.574;2023-07-16T13:14:54;3.38;;;3.08;;
75446;SDS011;64024;55.820;37.574;2023-07-16T13:17:21;3.53;;;3.13;;
75446;SDS011;64024;55.820;37.574;2023-07-16T13:19:48;3.67;;;2.95;;
75446;SDS011;64024;55.820;37.574;2023-07-16T13:22:16;3.78;;;3.42;;
75446;SDS011;64024;55.820;37.574;2023-07-16T13:24:43;8.13;;;3.95;;
75446;SDS011;64024;55.820;37.574;2023-07-16T13:27:19;4.13;;;3.15;;
75446;SDS011;64024;55.820;37.574;2023-07-16T13:29:46;3.58;;;3.08;;
75446;SDS011;64024;55.820;37.574;2023-07-16T13:32:14;4.80;;;3.13;;
75446;SDS011;64024;55.820;37.574;2023-07-16T13:34:40;5.85;;;3.17;;
75446;SDS011;64024;55.820;37.574;2023-07-16T13:37:09;3.35;;;3.00;;
75446;SDS011;64024;55.820;37.574;2023-07-16T13:39:37;3.63;;;2.70;;
75446;SDS011;64024;55.820;37.574;2023-07-16T13:42:04;4.80;;;3.00;;
75446;SDS011;64024;55.820;37.574;2023-07-16T13:44:32;2.72;;;2.35;;
75446;SDS011;64024;55.820;37.574;2023-07-16T13:47:01;2.90;;;2.60;;
75446;SDS011;64024;55.820;37.574;2023-07-16T13:49:27;3.30;;;2.97;;
75446;SDS011;64024;55.820;37.574;2023-07-16T13:51:55;4.85;;;3.40;;
75446;SDS011;64024;55.820;37.574;2023-07-16T13:54:23;3.38;;;3.08;;
75446;SDS011;64024;55.820;37.574;2023-07-16T13:56:49;3.20;;;2.85;;
75446;SDS011;64024;55.820;37.574;2023-07-16T13:59:17;3.33;;;3.00;;
75446;SDS011;64024;55.820;37.574;2023-07-16T14:01:43;3.35;;;3.03;;
75446;SDS011;64024;55.820;37.574;2023-07-16T14:04:11;3.42;;;3.13;;
75446;SDS011;64024;55.820;37.574;2023-07-16T14:06:42;5.53;;;3.05;;
75446;SDS011;64024;55.820;37.574;2023-07-16T14:09:09;4.93;;;3.13;;
75446;SDS011;64024;55.820;37.574;2023-07-16T14:11:35;3.88;;;3.08;;
75446;SDS011;64024;55.820;37.574;2023-07-16T14:14:02;3.78;;;3.20;;
75446;SDS011;64024;55.820;37.574;2023-07-16T14:16:29;3.67;;;3.20;;
75446;SDS011;64024;55.820;37.574;2023-07-16T14:18:55;4.03;;;3.30;;
75446;SDS011;64024;55.820;37.574;2023-07-16T14:21:23;3.33;;;2.88;;
75446;SDS011;64024;55.820;37.574;2023-07-16T14:23:52;3.42;;;2.97;;
75446;SDS011;64024;55.820;37.574;2023-07-16T14:26:20;4.97;;;3.00;;
75446;SDS011;64024;55.820;37.574;2023-07-16T14:28:46;4.05;;;3.22;;
75446;SDS011;64024;55.820;37.574;2023-07-16T14:31:12;3.50;;;2.65;;
75446;SDS011;64024;55.820;37.574;2023-07-16T14:33:42;3.30;;;2.95;;
75446;SDS011;64024;55.820;37.574;2023-07-16T14:36:09;3.25;;;2.40;;
75446;SDS011;64024;55.820;37.574;2023-07-16T14:41:02;3.05;;;2.75;;
75446;SDS011;64024;55.820;37.574;2023-07-16T14:43:30;6.72;;;3.13;;
75446;SDS011;64024;55.820;37.574;2023-07-16T14:45:56;3.30;;;2.83;;
75446;SDS011;64024;55.820;37.574;2023-07-16T14:48:23;4.93;;;2.75;;
75446;SDS011;64024;55.820;37.574;2023-07-16T14:50:53;4.93;;;3.10;;
75446;SDS011;64024;55.820;37.574;2023-07-16T14:53:20;3.33;;;2.92;;
75446;SDS011;64024;55.820;37.574;2023-07-16T14:55:51;4.03;;;2.75;;
75446;SDS011;64024;55.820;37.574;2023-07-16T14:58:18;2.95;;;2.53;;
75446;SDS011;64024;55.820;37.574;2023-07-16T15:00:47;3.53;;;2.47;;
75446;SDS011;64024;55.820;37.574;2023-07-16T15:03:14;2.67;;;2.33;;
75446;SDS011;64024;55.820;37.574;2023-07-16T15:05:43;4.88;;;3.65;;
75446;SDS011;64024;55.820;37.574;2023-07-16T15:08:19;3.38;;;2.58;;
75446;SDS011;64024;55.820;37.574;2023-07-16T15:10:47;4.28;;;2.90;;
75446;SDS011;64024;55.820;37.574;2023-07-16T15:13:15;2.92;;;2.50;;
75446;SDS011;64024;55.820;37.574;2023-07-16T15:15:46;4.50;;;2.90;;
75446;SDS011;64024;55.820;37.574;2023-07-16T15:18:14;3.05;;;2.75;;
75446;SDS011;64024;55.820;37.574;2023-07-16T15:20:40;6.50;;;2.70;;
75446;SDS011;64024;55.820;37.574;2023-07-16T15:23:07;3.42;;;2.97;;
75446;SDS011;64024;55.820;37.574;2023-07-16T15:25:35;2.72;;;2.22;;
75446;SDS011;64024;55.820;37.574;2023-07-16T15:28:05;3.00;;;2.70;;
75446;SDS011;64024;55.820;37.574;2023-07-16T15:32:58;3.22;;;2.38;;